Time;durP1;ratioP1;P1;durP2;ratioP2;P2;SDS_P1;SDS_P2;PMS_P1;PMS_P2;Temp;Humidity;BMP_temperature;BMP_pressure;BME280_temperature;BME280_humidity;BME280_pressure;Samples;Min_cycle;Max_cycle;Signal;HPM_P1;HPM_P2
2023/03/10 00:01:32;;;;;;;5.80;1.05;;;12.00;47.10;;;7.23;66.99;93764.94;4940150;28;20022;-51
2023/03/10 00:04:01;;;;;;;2.90;0.90;;;11.90;47.20;;;7.16;68.17;93758.13;4954490;28;20065;-48
2023/03/10 00:06:40;;;;;;;1.83;0.75;;;11.80;47.20;;;7.14;68.78;93752.34;4951194;28;20540;-47
2023/03/10 00:09:07;;;;;;;3.00;0.90;;;11.80;47.50;;;7.09;68.50;93755.06;4946509;28;20034;-47
2023/03/10 00:11:36;;;;;;;2.22;0.82;;;11.70;47.50;;;7.08;66.46;93755.34;4946822;28;20058;-51
2023/03/10 00:14:04;;;;;;;4.28;1.10;;;11.70;47.60;;;7.10;68.30;93745.25;4952086;28;20018;-46
2023/03/10 00:16:30;;;;;;;1.20;0.85;;;11.70;47.70;;;7.08;68.02;93748.22;4930150;29;20023;-49
2023/03/10 00:18:59;;;;;;;2.10;0.88;;;11.70;47.70;;;7.10;68.04;93742.63;4943742;28;20429;-51
2023/03/10 00:21:31;;;;;;;2.75;0.80;;;11.70;47.80;;;7.12;67.70;93738.63;4948856;28;20410;-46
2023/03/10 00:24:00;;;;;;;5.35;1.17;;;11.70;48.00;;;7.15;68.63;93753.16;4930879;28;20031;-47
2023/03/10 00:26:28;;;;;;;2.83;0.70;;;11.80;48.10;;;7.15;68.51;93763.72;4923766;28;20037;-47
2023/03/10 00:29:06;;;;;;;2.95;0.90;;;11.80;48.10;;;7.18;68.48;93758.66;4947734;28;20027;-48
2023/03/10 00:31:34;;;;;;;2.40;1.00;;;11.80;48.30;;;7.22;68.43;93756.22;4931801;28;20034;-47
2023/03/10 00:34:00;;;;;;;2.95;0.85;;;11.80;48.20;;;7.21;68.62;93753.84;4913355;28;20031;-47
2023/03/10 00:36:30;;;;;;;1.85;0.90;;;11.80;48.30;;;7.21;68.53;93752.00;4939415;28;20030;-48
2023/03/10 00:39:00;;;;;;;5.72;1.30;;;11.80;48.40;;;7.22;68.08;93752.78;4955553;28;20042;-48
2023/03/10 00:41:35;;;;;;;2.90;1.27;;;11.80;48.40;;;7.20;68.44;93761.00;4936074;28;20030;-52
2023/03/10 00:44:08;;;;;;;5.10;1.65;;;11.80;48.50;;;7.22;68.01;93756.22;4934283;28;20015;-48
2023/03/10 00:46:37;;;;;;;;;;;11.90;48.60;;;7.25;67.13;93744.25;4949291;28;20034;-52
2023/03/10 00:49:06;;;;;;;4.10;1.40;;;11.80;48.40;;;7.28;67.01;93748.97;4942809;28;19910;-50
2023/03/10 00:51:33;;;;;;;3.90;1.52;;;11.80;48.40;;;7.31;66.44;93743.88;4936158;28;20030;-47
2023/03/10 00:54:02;;;;;;;3.55;1.42;;;11.90;48.40;;;7.38;66.58;93732.94;4938260;28;20504;-49
2023/03/10 00:56:31;;;;;;;3.22;1.35;;;11.90;48.40;;;7.47;67.02;93741.78;4946340;28;20062;-48
2023/03/10 00:59:00;;;;;;;3.10;0.88;;;11.90;49.10;;;7.60;66.89;93745.56;4936094;28;20032;-51
2023/03/10 01:01:39;;;;;;;4.00;1.13;;;12.00;48.70;;;7.75;66.54;93744.53;4934223;28;20031;-48
2023/03/10 01:04:17;;;;;;;3.17;0.95;;;12.10;48.90;;;7.88;66.61;93749.06;4945893;28;20026;-51
2023/03/10 01:06:46;;;;;;;4.35;1.20;;;12.20;49.00;;;7.97;67.19;93739.38;4944530;28;20034;-48
2023/03/10 01:09:13;;;;;;;3.55;1.13;;;12.20;49.00;;;8.19;68.28;93746.66;4924464;29;20041;-52
2023/03/10 01:11:39;;;;;;;5.75;1.40;;;12.30;49.40;;;8.48;68.82;93745.59;4925940;29;20038;-46
2023/03/10 01:14:11;;;;;;;4.75;1.38;;;12.40;50.00;;;8.56;68.49;93736.97;4920362;29;20019;-51
2023/03/10 01:16:37;;;;;;;3.63;1.10;;;12.60;50.20;;;8.58;68.22;93743.53;4949778;28;20027;-50
2023/03/10 01:19:03;;;;;;;3.85;1.17;;;12.60;50.00;;;8.57;68.73;93755.22;4938235;28;20057;-48
2023/03/10 01:21:37;;;;;;;2.80;1.00;;;12.70;50.00;;;8.59;68.98;93749.66;4932300;29;20062;-48
2023/03/10 01:24:06;;;;;;;6.95;1.40;;;12.80;50.20;;;8.62;69.57;93743.75;4940801;28;20528;-50
2023/03/10 01:26:35;;;;;;;3.28;1.20;;;12.80;50.20;;;8.65;70.60;93745.81;4936259;28;20037;-50
2023/03/10 01:29:01;;;;;;;7.00;1.40;;;12.90;50.30;;;8.67;70.97;93751.59;4951915;28;20022;-47
2023/03/10 01:31:27;;;;;;;3.53;1.20;;;12.90;50.40;;;8.71;71.53;93746.47;4933944;28;20092;-48
2023/03/10 01:33:56;;;;;;;2.00;0.93;;;13.00;50.60;;;8.72;72.83;93742.75;4952607;28;20073;-47
2023/03/10 01:36:26;;;;;;;4.68;1.00;;;13.00;50.80;;;8.76;74.27;93747.16;4947510;28;20030;-47
2023/03/10 01:38:57;;;;;;;4.35;1.17;;;13.00;51.20;;;8.85;75.50;93738.50;4939986;28;20061;-47
2023/03/10 01:41:29;;;;;;;3.30;0.90;;;13.10;51.80;;;8.89;76.02;93747.44;4933238;28;20426;-53
2023/03/10 01:43:56;;;;;;;5.43;1.30;;;13.20;52.10;;;8.91;76.40;93751.38;4952207;28;20476;-47
2023/03/10 01:46:51;;;;;;;2.00;0.93;;;13.20;52.20;;;8.96;76.74;93750.47;4937932;28;20062;-47
2023/03/10 01:49:43;;;;;;;2.63;0.90;;;13.20;52.60;;;9.00;76.87;93757.53;4949485;28;20435;-47
2023/03/10 01:52:23;;;;;;;2.40;0.80;;;13.30;52.70;;;9.03;76.67;93748.19;4935081;28;20429;-47
2023/03/10 01:55:01;;;;;;;3.15;0.98;;;13.30;52.70;;;9.06;76.67;93752.91;4944054;28;20029;-48
2023/03/10 01:57:50;;;;;;;2.42;0.90;;;13.30;52.70;;;9.05;76.81;93748.66;4929412;28;20109;-53
2023/03/10 02:00:23;;;;;;;2.50;0.85;;;13.40;52.80;;;9.07;76.81;93745.72;4914245;29;20030;-47
2023/03/10 02:03:39;;;;;;;4.82;1.20;;;13.40;52.80;;;9.11;76.62;93757.31;4961016;28;20513;-50
2023/03/10 02:06:18;;;;;;;4.00;0.80;;;13.40;52.80;;;9.12;76.84;93753.56;4934046;28;20050;-46
2023/03/10 02:09:02;;;;;;;2.53;1.00;;;13.50;53.00;;;9.13;76.74;93750.63;4925616;28;20134;-47
2023/03/10 02:11:29;;;;;;;2.55;0.75;;;13.50;53.00;;;9.09;76.72;93754.97;4943972;28;20054;-46
2023/03/10 02:13:55;;;;;;;3.22;0.90;;;13.50;52.90;;;9.13;76.74;93749.84;4933601;28;20389;-49
2023/03/10 02:16:22;;;;;;;2.53;0.90;;;13.50;53.60;;;9.13;76.68;93740.00;4934496;28;20513;-48
2023/03/10 02:19:15;;;;;;;3.50;0.68;;;13.50;53.10;;;9.08;79.25;93766.66;4950650;28;20026;-46
2023/03/10 02:22:07;;;;;;;1.15;0.60;;;13.50;53.70;;;8.99;83.09;93744.56;4923852;28;20367;-48
2023/03/10 02:25:31;;;;;;;1.73;0.60;;;13.40;54.20;;;8.82;85.42;93750.50;4945643;28;20026;-47
2023/03/10 02:27:57;;;;;;;0.60;0.40;;;13.20;54.90;;;8.63;86.74;93766.53;4934316;28;20281;-46
2023/03/10 02:30:57;;;;;;;1.63;0.50;;;13.00;55.20;;;8.44;88.79;93763.22;4932555;28;20389;-48
2023/03/10 02:33:32;;;;;;;1.05;0.45;;;12.80;56.20;;;8.30;90.36;93756.00;4929572;28;20060;-47
2023/03/10 02:36:23;;;;;;;1.17;0.35;;;12.60;56.80;;;8.20;89.08;93742.91;4946773;28;20037;-52
2023/03/10 02:38:49;;;;;;;2.65;0.40;;;12.50;57.30;;;8.20;88.56;93737.59;4938979;28;20466;-47
2023/03/10 02:41:38;;;;;;;2.35;0.40;;;12.40;57.50;;;8.21;90.31;93755.13;4905775;29;20043;-46
2023/03/10 02:44:12;;;;;;;0.50;0.30;;;12.30;58.30;;;8.14;88.59;93722.88;4926316;29;20030;-53
2023/03/10 02:46:38;;;;;;;2.88;0.32;;;12.20;58.50;;;8.11;89.73;93742.03;4929886;29;20033;-48
2023/03/10 02:49:09;;;;;;;3.10;0.50;;;12.10;58.50;;;8.03;90.22;93746.16;4922153;29;20034;-52
2023/03/10 02:51:43;;;;;;;0.52;0.30;;;12.10;58.90;;;7.98;89.83;93742.78;4920803;29;20487;-52
2023/03/10 02:54:11;;;;;;;0.82;0.40;;;12.00;59.20;;;7.96;90.72;93751.06;4930818;29;20029;-47
2023/03/10 02:56:38;;;;;;;1.15;0.30;;;11.90;59.60;;;7.91;89.43;93731.78;4931091;29;20027;-50
2023/03/10 02:59:08;;;;;;;1.02;0.50;;;11.90;59.90;;;7.89;92.23;93756.72;4911779;29;20379;-54
2023/03/10 03:01:37;;;;;;;0.40;0.40;;;11.80;60.10;;;7.84;92.19;93754.16;4927580;29;20023;-54
2023/03/10 03:04:06;;;;;;;1.13;0.30;;;11.80;60.40;;;7.81;92.84;93749.44;4904554;29;20546;-48
2023/03/10 03:06:35;;;;;;;1.27;0.30;;;11.70;60.80;;;7.71;93.61;93746.16;4928140;29;20036;-47
2023/03/10 03:09:01;;;;;;;1.23;0.30;;;11.70;61.20;;;7.70;93.11;93726.06;4906153;29;20043;-49
2023/03/10 03:11:36;;;;;;;0.77;0.40;;;11.60;61.30;;;7.64;92.68;93717.41;4902396;29;20027;-47
2023/03/10 03:14:06;;;;;;;0.55;0.40;;;11.60;61.80;;;7.68;93.83;93729.00;4914223;29;20047;-50
2023/03/10 03:16:32;;;;;;;0.30;0.30;;;11.60;61.70;;;7.65;93.59;93733.00;4931326;29;20026;-51
2023/03/10 03:19:01;;;;;;;0.35;0.30;;;11.50;61.60;;;7.64;92.30;93734.06;4930848;29;20078;-47
2023/03/10 03:21:27;;;;;;;0.40;0.30;;;11.60;61.90;;;7.69;91.92;93719.97;4914983;29;20053;-50
2023/03/10 03:23:53;;;;;;;1.40;0.40;;;11.60;61.90;;;7.74;89.29;93727.03;4931211;29;20019;-49
2023/03/10 03:26:25;;;;;;;1.05;0.40;;;11.60;62.10;;;7.79;88.71;93727.75;4930370;29;20443;-47
2023/03/10 03:28:52;;;;;;;0.30;0.30;;;11.60;62.30;;;7.86;87.92;93722.06;4898957;29;20015;-52
2023/03/10 03:31:24;;;;;;;1.00;0.40;;;11.60;62.10;;;7.92;87.39;93720.09;4926312;29;20395;-49
2023/03/10 03:33:56;;;;;;;0.70;0.50;;;11.70;62.30;;;7.96;85.90;93713.94;4914762;29;20027;-47
2023/03/10 03:36:22;;;;;;;2.10;0.70;;;11.70;62.30;;;8.00;86.46;93703.53;4931528;28;20394;-50
2023/03/10 03:38:50;;;;;;;0.55;0.38;;;11.70;62.20;;;7.96;86.04;93695.38;4924442;28;20046;-56
2023/03/10 03:41:16;;;;;;;0.52;0.40;;;11.70;62.30;;;7.94;85.84;93683.50;4954322;28;20512;-54
2023/03/10 03:43:42;;;;;;;0.77;0.60;;;11.70;62.20;;;7.95;86.65;93688.47;4934384;28;20023;-51
2023/03/10 03:46:08;;;;;;;0.40;0.40;;;11.70;62.10;;;7.92;82.95;93683.78;4947770;28;20030;-54
2023/03/10 03:48:34;;;;;;;0.43;0.32;;;11.70;62.00;;;8.00;83.31;93685.75;4939917;28;20027;-52
2023/03/10 03:51:01;;;;;;;1.05;0.40;;;11.70;62.00;;;8.04;83.93;93681.41;4953902;28;20065;-52
2023/03/10 03:53:32;;;;;;;0.32;0.30;;;11.70;61.90;;;8.02;84.28;93680.94;4952580;28;20116;-54
2023/03/10 03:56:04;;;;;;;1.45;0.50;;;11.80;61.90;;;8.02;81.69;93672.19;4929769;28;20505;-52
2023/03/10 03:58:30;;;;;;;0.77;0.30;;;11.80;61.80;;;8.05;83.05;93677.72;4937169;28;20121;-52
2023/03/10 04:00:56;;;;;;;1.02;0.43;;;11.80;61.60;;;8.08;81.93;93668.34;4944117;28;20117;-51
2023/03/10 04:03:25;;;;;;;0.65;0.50;;;11.90;61.60;;;8.10;81.69;93658.25;4946890;28;20027;-53
2023/03/10 04:05:53;;;;;;;0.73;0.38;;;11.90;61.40;;;8.15;81.00;93654.69;4945172;28;20055;-53
2023/03/10 04:08:22;;;;;;;1.40;0.50;;;12.00;61.30;;;8.14;81.67;93650.47;4944450;28;20027;-55
2023/03/10 04:10:54;;;;;;;0.63;0.40;;;12.00;61.10;;;8.10;81.38;93645.00;4947104;28;20038;-51
2023/03/10 04:13:23;;;;;;;0.50;0.35;;;12.00;60.90;;;8.10;80.36;93645.00;4915893;29;20022;-53
2023/03/10 04:15:56;;;;;;;1.38;0.30;;;12.10;60.70;;;8.08;81.18;93625.94;4929301;28;20023;-50
2023/03/10 04:18:22;;;;;;;0.52;0.45;;;12.10;60.50;;;8.03;80.91;93623.41;4944959;28;20095;-50
2023/03/10 04:20:51;;;;;;;1.10;0.40;;;12.10;60.20;;;8.00;79.64;93605.44;4943143;28;20038;-52
2023/03/10 04:23:20;;;;;;;0.30;0.30;;;12.10;60.10;;;8.02;79.80;93608.53;4953640;28;20194;-53
2023/03/10 04:25:46;;;;;;;1.33;0.40;;;12.10;59.90;;;8.01;79.92;93604.34;4930603;28;20377;-54
2023/03/10 04:28:11;;;;;;;0.52;0.30;;;12.10;59.80;;;8.02;79.57;93600.59;4936291;28;20031;-56
2023/03/10 04:30:44;;;;;;;0.50;0.30;;;12.10;59.70;;;7.98;78.72;93592.44;4952960;28;20378;-52
2023/03/10 04:33:12;;;;;;;0.40;0.30;;;12.10;59.60;;;7.97;78.13;93585.59;4928149;28;20031;-54
2023/03/10 04:35:50;;;;;;;0.43;0.30;;;12.10;59.50;;;7.99;78.29;93586.09;4935149;28;20516;-50
2023/03/10 04:38:16;;;;;;;0.45;0.35;;;12.10;59.40;;;7.94;77.87;93586.19;4936387;28;20193;-51
2023/03/10 04:40:57;;;;;;;0.65;0.40;;;12.10;59.30;;;7.88;78.64;93582.06;4936293;28;20433;-49
2023/03/10 04:43:29;;;;;;;0.70;0.52;;;12.10;59.20;;;7.86;78.69;93587.63;4949303;28;20386;-51
2023/03/10 04:45:55;;;;;;;0.43;0.28;;;12.10;59.20;;;7.83;78.34;93580.31;4931721;28;20026;-51
2023/03/10 04:48:28;;;;;;;0.30;0.30;;;12.00;59.00;;;7.83;78.37;93576.84;4949899;28;20073;-51
2023/03/10 04:51:02;;;;;;;1.17;0.40;;;12.10;59.10;;;7.85;78.26;93562.22;4934151;28;20529;-53
2023/03/10 04:53:33;;;;;;;0.52;0.32;;;12.00;59.00;;;7.93;78.32;93573.19;4952302;28;20069;-52
2023/03/10 04:56:06;;;;;;;0.30;0.25;;;12.10;59.00;;;7.92;78.34;93569.78;4939031;28;20026;-54
2023/03/10 04:58:35;;;;;;;0.43;0.30;;;12.10;59.00;;;7.89;78.84;93539.34;4954820;28;20022;-52
2023/03/10 05:01:01;;;;;;;0.20;0.20;;;12.10;58.90;;;7.79;80.29;93541.41;4951230;28;20294;-51
2023/03/10 05:03:27;;;;;;;0.30;0.30;;;12.00;58.80;;;7.70;78.69;93536.03;4954625;28;20022;-50
2023/03/10 05:05:53;;;;;;;0.75;0.30;;;12.00;58.70;;;7.65;79.85;93528.19;4951549;28;20041;-49
2023/03/10 05:08:28;;;;;;;0.40;0.30;;;12.00;58.80;;;7.64;80.32;93530.03;4960365;28;20482;-51
2023/03/10 05:10:57;;;;;;;1.23;0.32;;;12.00;58.90;;;7.65;79.95;93525.53;4950919;28;20084;-52
2023/03/10 05:13:26;;;;;;;0.57;0.40;;;11.90;58.80;;;7.63;78.11;93522.41;4949782;28;20045;-50
2023/03/10 05:15:52;;;;;;;0.50;0.40;;;11.90;58.90;;;7.67;78.66;93525.22;4928389;28;20474;-50
2023/03/10 05:18:21;;;;;;;0.77;0.40;;;12.00;58.90;;;7.72;78.82;93503.94;4950318;28;20034;-52
2023/03/10 05:20:55;;;;;;;0.47;0.40;;;12.00;58.90;;;7.73;77.93;93500.19;4934091;28;20505;-49
2023/03/10 05:23:22;;;;;;;0.85;0.40;;;12.00;58.80;;;7.71;77.82;93476.66;4941915;28;20121;-51
2023/03/10 05:25:49;;;;;;;1.23;0.30;;;12.00;58.70;;;7.71;78.99;93478.50;4948989;28;20520;-51
2023/03/10 05:28:15;;;;;;;1.63;0.40;;;12.00;58.70;;;7.64;78.13;93477.03;4947228;28;20030;-51
2023/03/10 05:30:47;;;;;;;1.27;0.60;;;12.00;58.70;;;7.65;78.82;93472.53;4930238;28;20105;-51
2023/03/10 05:33:12;;;;;;;2.40;0.60;;;12.00;58.70;;;7.65;78.43;93462.72;4951188;28;20052;-53
2023/03/10 05:35:38;;;;;;;1.63;0.45;;;12.00;58.60;;;7.59;77.86;93455.97;4932106;28;20026;-49
2023/03/10 05:38:07;;;;;;;1.65;0.50;;;11.90;58.60;;;7.57;77.83;93452.81;4940496;28;20026;-51
2023/03/10 05:40:32;;;;;;;1.00;0.40;;;11.90;58.50;;;7.61;76.48;93443.19;4950121;28;20117;-50
2023/03/10 05:43:04;;;;;;;1.90;0.52;;;11.90;58.50;;;7.68;76.96;93429.56;4960438;28;20092;-50
2023/03/10 05:45:36;;;;;;;1.13;0.52;;;12.00;58.50;;;7.68;77.10;93434.84;4951451;28;20026;-51
2023/03/10 05:48:02;;;;;;;1.65;0.60;;;12.00;58.50;;;7.68;77.03;93444.66;4941034;28;20081;-51
2023/03/10 05:50:31;;;;;;;1.27;0.60;;;12.00;58.40;;;7.65;78.35;93440.75;4948438;28;20310;-50
2023/03/10 05:53:03;;;;;;;0.55;0.52;;;12.00;58.40;;;7.65;78.72;93435.44;4922963;29;20038;-54
2023/03/10 05:55:29;;;;;;;3.37;0.60;;;12.00;58.50;;;7.62;78.54;93426.22;4930845;28;20168;-49
2023/03/10 05:57:55;;;;;;;1.70;0.80;;;12.00;58.40;;;7.58;78.74;93435.06;4949641;28;20508;-55
2023/03/10 06:00:21;;;;;;;2.25;0.65;;;12.00;58.40;;;7.54;78.92;93434.88;4943090;28;20023;-52
2023/03/10 06:02:50;;;;;;;0.50;0.40;;;12.00;58.40;;;7.58;79.17;93429.75;4944408;28;20019;-53
2023/03/10 06:05:16;;;;;;;1.20;0.40;;;12.00;58.50;;;7.58;79.14;93430.56;4934252;28;20053;-50
2023/03/10 06:07:50;;;;;;;1.02;0.68;;;12.00;58.40;;;7.62;79.18;93433.38;4932762;28;20486;-52
2023/03/10 06:10:16;;;;;;;2.03;0.68;;;12.00;58.40;;;7.64;80.48;93437.28;4932034;28;20023;-52
2023/03/10 06:12:42;;;;;;;0.95;0.85;;;12.10;58.40;;;7.65;80.85;93428.28;4927845;28;20478;-53
2023/03/10 06:15:09;;;;;;;0.77;0.68;;;12.20;58.40;;;7.67;81.63;93438.56;4958459;28;20038;-50
2023/03/10 06:17:34;;;;;;;0.65;0.60;;;12.20;58.40;;;7.64;81.56;93450.53;4934062;28;20477;-50
2023/03/10 06:20:01;;;;;;;0.68;0.57;;;12.30;58.40;;;7.61;81.82;93493.53;4939559;28;20037;-51
2023/03/10 06:22:26;;;;;;;0.82;0.63;;;12.30;58.40;;;7.58;82.55;93503.94;4941661;28;20031;-52
2023/03/10 06:24:52;;;;;;;1.13;0.50;;;12.30;58.40;;;7.59;84.25;93502.88;4941751;28;20026;-51
2023/03/10 06:27:18;;;;;;;1.20;0.50;;;12.30;58.40;;;7.56;86.96;93498.16;4929942;28;20084;-52
2023/03/10 06:29:45;;;;;;;0.38;0.38;;;12.30;58.50;;;7.50;88.97;93507.28;4940695;28;20023;-54
2023/03/10 06:32:11;;;;;;;0.93;0.40;;;12.30;58.60;;;7.50;90.15;93521.31;4942528;28;20033;-49
2023/03/10 06:34:37;;;;;;;0.63;0.40;;;12.30;58.80;;;7.49;90.58;93518.94;4947793;28;20459;-55
2023/03/10 06:37:06;;;;;;;0.40;0.35;;;12.30;59.00;;;7.48;90.97;93520.03;4941918;28;20077;-50
2023/03/10 06:39:32;;;;;;;0.30;0.30;;;12.30;59.40;;;7.51;90.96;93522.09;4948538;28;20101;-52
2023/03/10 06:42:00;;;;;;;1.75;0.60;;;12.20;59.40;;;7.55;91.81;93520.41;4944685;28;20046;-51
2023/03/10 06:44:26;;;;;;;1.48;0.63;;;12.20;59.60;;;7.48;92.49;93520.81;4944374;28;20018;-52
2023/03/10 06:46:51;;;;;;;1.02;0.60;;;12.10;59.70;;;7.49;93.75;93518.94;4916330;29;20030;-53
2023/03/10 06:49:27;;;;;;;1.52;0.50;;;12.10;59.90;;;7.42;94.77;93501.59;4923269;28;20066;-53
2023/03/10 06:51:56;;;;;;;0.75;0.52;;;11.90;59.90;;;7.35;95.94;93506.50;4920583;28;20034;-50
2023/03/10 06:54:22;;;;;;;0.77;0.45;;;11.90;60.20;;;7.27;97.58;93519.63;4933719;29;20018;-55
2023/03/10 06:56:54;;;;;;;4.20;0.90;;;11.80;60.50;;;7.18;98.01;93528.28;4949098;28;20041;-51
2023/03/10 06:59:23;;;;;;;1.03;0.67;;;11.70;60.80;;;7.15;99.39;93543.97;4949995;28;20105;-50
2023/03/10 07:01:58;;;;;;;1.75;0.70;;;11.60;60.90;;;6.99;99.95;93561.16;4929101;28;20293;-49
2023/03/10 07:04:27;;;;;;;2.03;0.60;;;11.50;61.40;;;6.88;100.00;93573.78;4931552;28;20023;-48
2023/03/10 07:06:53;;;;;;;0.80;0.68;;;11.40;61.50;;;6.73;100.00;93588.06;4944879;28;20105;-52
2023/03/10 07:09:19;;;;;;;2.30;0.60;;;11.30;61.80;;;6.73;100.00;93602.06;4925904;29;20478;-50
2023/03/10 07:11:54;;;;;;;4.35;0.80;;;11.20;62.00;;;6.67;100.00;93599.78;4948295;28;20031;-49
2023/03/10 07:14:26;;;;;;;3.65;0.63;;;11.20;62.60;;;6.62;100.00;93610.47;4936296;28;20097;-50
2023/03/10 07:16:58;;;;;;;1.80;0.70;;;11.10;62.90;;;6.46;100.00;93608.03;4933019;29;20048;-51
2023/03/10 07:19:36;;;;;;;4.18;0.70;;;11.00;63.10;;;6.45;100.00;93614.38;4934344;29;20493;-50
2023/03/10 07:22:02;;;;;;;3.28;0.70;;;10.90;63.40;;;6.37;100.00;93599.16;4917220;29;20026;-51
2023/03/10 07:24:28;;;;;;;2.95;0.70;;;10.90;63.60;;;6.36;100.00;93588.84;4943808;29;20030;-52
2023/03/10 07:27:03;;;;;;;0.95;0.50;;;10.80;63.70;;;6.38;100.00;93589.38;4932601;28;20469;-50
2023/03/10 07:29:32;;;;;;;1.90;0.88;;;10.80;64.10;;;6.40;100.00;93593.31;4942898;29;20046;-50
2023/03/10 07:31:58;;;;;;;2.50;0.85;;;10.80;64.00;;;6.36;100.00;93587.03;4953066;28;20453;-51
2023/03/10 07:34:24;;;;;;;1.40;0.60;;;10.80;64.20;;;6.31;100.00;93600.31;4942277;29;20134;-51
2023/03/10 07:36:50;;;;;;;0.40;0.40;;;10.70;64.20;;;6.31;100.00;93610.09;4931090;29;20505;-51
2023/03/10 07:39:19;;;;;;;1.80;0.63;;;10.80;64.30;;;6.23;100.00;93614.16;4932572;29;20129;-51
2023/03/10 07:41:51;;;;;;;1.10;0.70;;;10.80;64.60;;;6.28;100.00;93619.38;4946095;29;20033;-52
2023/03/10 07:44:20;;;;;;;1.48;0.50;;;10.80;64.70;;;6.24;100.00;93637.69;4939716;29;20027;-50
2023/03/10 07:46:52;;;;;;;1.88;0.50;;;10.80;64.60;;;6.21;100.00;93645.41;4928750;29;20031;-51
2023/03/10 07:49:18;;;;;;;1.35;0.50;;;10.80;64.60;;;6.20;100.00;93649.09;4916838;29;20081;-49
2023/03/10 07:51:46;;;;;;;3.70;0.60;;;10.70;64.60;;;6.13;100.00;93659.22;4925619;29;20030;-54
2023/03/10 07:54:15;;;;;;;1.05;0.60;;;10.70;64.70;;;6.00;100.00;93669.41;4932965;29;20027;-51
2023/03/10 07:56:41;;;;;;;1.85;0.70;;;10.60;64.80;;;5.95;100.00;93658.91;4951289;28;20018;-52
2023/03/10 07:59:10;;;;;;;3.40;0.80;;;10.50;64.80;;;5.98;100.00;93666.25;4947737;29;20473;-52
2023/03/10 08:01:38;;;;;;;4.80;1.00;;;10.50;64.90;;;5.96;100.00;93665.78;4932941;29;20042;-53
2023/03/10 08:04:07;;;;;;;3.17;0.57;;;10.50;65.10;;;5.83;100.00;93687.56;4933975;29;20106;-49
2023/03/10 08:06:34;;;;;;;2.88;0.68;;;10.50;65.10;;;5.79;100.00;93694.47;4944303;29;20041;-51
2023/03/10 08:09:03;;;;;;;1.90;0.63;;;10.40;65.20;;;5.78;100.00;93698.19;4948704;29;20026;-51
2023/03/10 08:11:35;;;;;;;2.72;0.73;;;10.40;65.40;;;5.77;100.00;93726.47;4920988;29;20031;-50
2023/03/10 08:14:01;;;;;;;1.97;0.50;;;10.30;65.70;;;5.78;100.00;93698.19;4929843;29;20026;-50
2023/03/10 08:16:32;;;;;;;2.50;0.77;;;10.30;65.70;;;5.77;100.00;93686.81;4939407;29;20286;-50
2023/03/10 08:19:01;;;;;;;0.90;0.47;;;10.30;65.90;;;5.65;100.00;93688.28;4933754;29;20034;-52
2023/03/10 08:21:36;;;;;;;1.85;0.60;;;10.30;65.70;;;5.69;100.00;93684.78;4941191;29;20085;-53
2023/03/10 08:24:02;;;;;;;1.65;0.50;;;10.40;65.90;;;5.75;100.00;93706.66;4933942;28;20481;-50
2023/03/10 08:26:28;;;;;;;0.50;0.40;;;10.50;65.70;;;5.82;100.00;93720.31;4927329;28;20446;-52
2023/03/10 08:28:54;;;;;;;1.35;0.50;;;10.60;65.60;;;5.89;100.00;93707.59;4969665;28;20128;-54
2023/03/10 08:31:29;;;;;;;0.90;0.40;;;10.80;65.60;;;6.01;100.00;93707.22;4951810;28;20030;-50
2023/03/10 08:33:58;;;;;;;0.55;0.32;;;11.00;65.70;;;6.18;100.00;93701.47;4948039;28;20031;-51
2023/03/10 08:36:29;;;;;;;0.30;0.30;;;11.20;65.60;;;6.23;100.00;93714.63;4950715;28;20058;-53
2023/03/10 08:38:59;;;;;;;1.50;0.75;;;11.30;65.50;;;6.31;100.00;93721.94;4967153;28;20034;-50
2023/03/10 08:41:35;;;;;;;0.70;0.50;;;11.50;65.40;;;6.37;100.00;93720.81;4951467;28;20023;-51
2023/03/10 08:44:05;;;;;;;0.40;0.40;;;11.50;65.30;;;6.52;100.00;93703.97;4940201;28;20367;-53
2023/03/10 08:46:34;;;;;;;0.55;0.40;;;11.70;65.30;;;6.52;100.00;93713.75;4933220;28;20510;-49
2023/03/10 08:49:03;;;;;;;0.52;0.30;;;11.70;65.30;;;6.53;98.83;93717.97;4933903;28;20109;-49
2023/03/10 08:51:38;;;;;;;1.95;0.40;;;11.70;65.10;;;6.63;99.28;93723.13;4937757;28;20113;-50
2023/03/10 08:54:05;;;;;;;2.60;0.40;;;11.70;65.10;;;6.62;96.28;93732.94;4940015;28;20478;-51
2023/03/10 08:56:34;;;;;;;4.30;0.50;;;11.80;65.00;;;6.65;93.21;93716.50;4931262;29;20043;-52
2023/03/10 08:59:00;;;;;;;2.28;0.50;;;11.80;64.70;;;6.78;93.98;93722.94;4939767;28;20037;-49
2023/03/10 09:01:34;;;;;;;2.55;0.50;;;11.80;64.50;;;6.89;96.37;93716.44;4950704;28;20394;-50
2023/03/10 09:04:09;;;;;;;2.05;0.60;;;11.90;64.40;;;7.02;96.31;93706.19;4941474;28;20030;-49
2023/03/10 09:06:38;;;;;;;0.95;0.60;;;12.00;64.30;;;6.98;93.70;93698.03;4950915;28;20030;-50
2023/03/10 09:09:07;;;;;;;2.17;0.50;;;12.20;64.10;;;7.08;92.37;93705.84;4946626;28;20027;-51
2023/03/10 09:11:40;;;;;;;1.73;0.50;;;12.40;63.60;;;7.38;92.45;93696.63;4931688;28;20486;-51
2023/03/10 09:14:10;;;;;;;0.98;0.40;;;12.80;63.30;;;7.67;91.95;93700.13;4909306;28;20034;-54
2023/03/10 09:16:38;;;;;;;2.25;0.70;;;13.10;63.00;;;7.86;91.40;93698.97;4934730;28;20053;-51
2023/03/10 09:19:04;;;;;;;2.85;0.77;;;13.40;62.80;;;7.95;89.28;93703.63;4949360;28;20022;-51
2023/03/10 09:21:32;;;;;;;1.92;0.60;;;13.60;62.50;;;8.04;88.25;93697.34;4939769;28;20022;-50
2023/03/10 09:23:59;;;;;;;4.60;0.75;;;13.70;62.10;;;8.07;86.96;93683.47;4970642;28;20033;-53
2023/03/10 09:26:34;;;;;;;2.03;0.63;;;13.80;61.80;;;8.25;87.45;93681.03;4943823;28;20090;-55
2023/03/10 09:29:03;;;;;;;2.83;0.80;;;13.90;61.60;;;8.39;86.46;93668.56;4946581;28;20540;-51
2023/03/10 09:31:36;;;;;;;3.45;0.70;;;14.00;61.40;;;8.41;84.44;93662.97;4950950;28;20030;-51
2023/03/10 09:34:07;;;;;;;2.00;0.57;;;14.10;61.90;;;8.41;85.25;93658.44;4934615;28;20034;-51
2023/03/10 09:36:34;;;;;;;1.33;0.70;;;14.10;60.70;;;8.38;79.74;93659.03;4943431;28;20022;-54
2023/03/10 09:39:06;;;;;;;5.03;0.90;;;14.10;60.40;;;8.45;83.24;93670.03;4928646;29;20067;-49
2023/03/10 09:42:06;;;;;;;6.10;0.88;;;14.00;60.30;;;8.49;83.50;93663.06;4943070;28;20109;-49
2023/03/10 09:45:19;;;;;;;1.88;0.60;;;13.90;60.30;;;8.46;83.24;93666.31;4940793;28;20032;-48
2023/03/10 09:48:14;;;;;;;2.92;0.70;;;13.80;60.30;;;8.51;83.50;93666.19;4921205;29;20038;-49
2023/03/10 09:50:55;;;;;;;3.33;0.60;;;13.80;60.50;;;8.49;83.93;93662.25;4931111;29;20019;-49
2023/03/10 09:54:10;;;;;;;2.95;0.75;;;13.80;60.40;;;8.45;83.03;93667.38;4946939;28;20026;-50
2023/03/10 09:56:37;;;;;;;2.42;0.50;;;13.70;60.20;;;8.32;82.14;93670.81;4925665;29;20065;-53
2023/03/10 09:59:34;;;;;;;2.78;0.57;;;13.70;60.00;;;8.35;81.70;93675.53;4925182;28;20034;-50
2023/03/10 10:02:33;;;;;;;1.55;0.50;;;13.60;59.90;;;8.25;80.84;93670.44;4929170;29;20372;-47
2023/03/10 10:05:10;;;;;;;1.33;0.60;;;13.50;59.90;;;8.13;82.37;93664.84;4928225;29;20502;-50
2023/03/10 10:08:25;;;;;;;1.33;0.60;;;13.40;59.70;;;8.12;85.20;93682.63;4930099;29;20092;-52
2023/03/10 10:11:00;;;;;;;9.18;0.90;;;13.40;59.80;;;8.16;86.48;93674.84;4923739;28;20026;-52
2023/03/10 10:13:29;;;;;;;3.10;0.70;;;13.30;59.80;;;8.08;84.41;93679.78;4926700;28;20496;-50
2023/03/10 10:16:24;;;;;;;1.60;0.88;;;13.30;59.80;;;7.98;85.41;93687.91;4932115;29;20031;-50
2023/03/10 10:19:24;;;;;;;3.22;0.82;;;13.20;59.90;;;7.97;86.88;93682.91;4944722;28;20394;-49
2023/03/10 10:22:29;;;;;;;3.13;0.82;;;13.10;60.00;;;7.92;88.91;93680.34;4920506;28;20429;-53
2023/03/10 10:25:07;;;;;;;1.40;0.75;;;13.00;60.10;;;7.89;90.31;93682.47;4912024;29;20031;-52
2023/03/10 10:27:36;;;;;;;1.13;0.60;;;13.00;60.30;;;7.86;90.29;93680.41;4928336;28;20045;-46
2023/03/10 10:30:39;;;;;;;2.13;0.70;;;13.10;60.40;;;7.92;91.74;93688.28;4932182;28;20118;-52
2023/03/10 10:33:13;;;;;;;2.75;0.80;;;13.10;60.60;;;7.84;90.50;93685.25;4930348;28;20038;-51
2023/03/10 10:35:59;;;;;;;1.90;0.70;;;13.20;60.60;;;7.85;88.11;93678.06;4931089;28;20026;-48
2023/03/10 10:38:29;;;;;;;2.70;0.90;;;13.20;60.60;;;7.77;89.19;93702.59;4915544;29;20027;-47
2023/03/10 10:41:21;;;;;;;3.17;0.60;;;13.20;60.40;;;7.83;87.49;93688.19;4930316;29;20047;-49
2023/03/10 10:43:49;;;;;;;0.63;0.50;;;13.30;60.40;;;7.83;87.14;93707.53;4928818;29;20435;-49
2023/03/10 10:46:28;;;;;;;0.93;0.80;;;13.30;60.20;;;7.87;88.55;93689.19;4918060;29;20030;-52